sensor_id;sensor_type;location;lat;lon;timestamp;pressure;altitude;pressure_sealevel;temperature;humidity
24302;BME280;12421;49.732;20.078;2023-05-19T00:04:49;97660.98;;;9.18;87.94
24302;BME280;12421;49.732;20.078;2023-05-19T00:14:52;97665.02;;;9.20;88.09
24302;BME280;12421;49.732;20.078;2023-05-19T00:24:55;97664.38;;;9.31;88.09
24302;BME280;12421;49.732;20.078;2023-05-19T00:34:58;97649.85;;;9.34;87.60
24302;BME280;12421;49.732;20.078;2023-05-19T00:45:02;97659.86;;;9.38;87.30
24302;BME280;12421;49.732;20.078;2023-05-19T00:55:05;97650.05;;;9.38;87.49
24302;BME280;12421;49.732;20.078;2023-05-19T01:05:09;97639.55;;;9.40;87.22
24302;BME280;12421;49.732;20.078;2023-05-19T01:15:14;97627.41;;;9.30;87.24
24302;BME280;12421;49.732;20.078;2023-05-19T01:35:35;97634.04;;;9.24;87.72
24302;BME280;12421;49.732;20.078;2023-05-19T01:45:39;97640.65;;;9.17;87.77
24302;BME280;12421;49.732;20.078;2023-05-19T01:55:45;97639.20;;;9.08;88.40
24302;BME280;12421;49.732;20.078;2023-05-19T02:16:38;97624.45;;;9.04;89.14
24302;BME280;12421;49.732;20.078;2023-05-19T02:26:45;97618.98;;;8.95;89.61
24302;BME280;12421;49.732;20.078;2023-05-19T02:36:48;97617.40;;;8.96;89.81
24302;BME280;12421;49.732;20.078;2023-05-19T02:46:51;97612.66;;;8.96;89.88
24302;BME280;12421;49.732;20.078;2023-05-19T02:56:56;97607.55;;;8.90;90.19
24302;BME280;12421;49.732;20.078;2023-05-19T03:06:59;97611.92;;;8.92;90.33
24302;BME280;12421;49.732;20.078;2023-05-19T03:17:02;97614.08;;;8.98;90.27
24302;BME280;12421;49.732;20.078;2023-05-19T03:27:05;97618.15;;;9.03;89.94
24302;BME280;12421;49.732;20.078;2023-05-19T03:37:09;97619.28;;;9.16;89.53
24302;BME280;12421;49.732;20.078;2023-05-19T03:47:13;97617.74;;;9.25;89.17
24302;BME280;12421;49.732;20.078;2023-05-19T03:57:38;97614.81;;;9.35;88.67
24302;BME280;12421;49.732;20.078;2023-05-19T04:07:43;97611.83;;;9.35;88.18
24302;BME280;12421;49.732;20.078;2023-05-19T04:17:48;97619.71;;;9.35;87.94
24302;BME280;12421;49.732;20.078;2023-05-19T04:27:53;97624.54;;;9.54;88.17
24302;BME280;12421;49.732;20.078;2023-05-19T04:38:00;97620.73;;;9.65;87.37
24302;BME280;12421;49.732;20.078;2023-05-19T04:48:05;97621.74;;;9.55;86.94
24302;BME280;12421;49.732;20.078;2023-05-19T04:58:09;97621.39;;;9.56;87.02
24302;BME280;12421;49.732;20.078;2023-05-19T05:08:12;97613.02;;;9.64;86.77
24302;BME280;12421;49.732;20.078;2023-05-19T05:18:18;97621.27;;;9.71;85.84
24302;BME280;12421;49.732;20.078;2023-05-19T05:28:22;97622.88;;;9.78;85.49
24302;BME280;12421;49.732;20.078;2023-05-19T05:38:25;97634.02;;;10.03;85.14
24302;BME280;12421;49.732;20.078;2023-05-19T05:48:29;97637.08;;;10.32;84.24
24302;BME280;12421;49.732;20.078;2023-05-19T05:58:33;97636.75;;;10.44;83.27
24302;BME280;12421;49.732;20.078;2023-05-19T06:08:39;97643.08;;;10.58;83.31
24302;BME280;12421;49.732;20.078;2023-05-19T06:18:43;97650.27;;;10.83;82.73
24302;BME280;12421;49.732;20.078;2023-05-19T06:28:46;97654.60;;;11.25;81.96
24302;BME280;12421;49.732;20.078;2023-05-19T06:38:49;97655.98;;;11.40;80.58
24302;BME280;12421;49.732;20.078;2023-05-19T06:48:52;97660.22;;;11.37;80.24
24302;BME280;12421;49.732;20.078;2023-05-19T06:58:57;97662.85;;;11.37;79.69
24302;BME280;12421;49.732;20.078;2023-05-19T07:09:05;97664.09;;;11.34;79.97
24302;BME280;12421;49.732;20.078;2023-05-19T07:19:12;97665.83;;;11.44;79.87
24302;BME280;12421;49.732;20.078;2023-05-19T07:29:15;97663.68;;;11.66;79.36
24302;BME280;12421;49.732;20.078;2023-05-19T07:39:18;97657.86;;;11.66;79.19
24302;BME280;12421;49.732;20.078;2023-05-19T07:49:22;97658.64;;;11.95;79.24
24302;BME280;12421;49.732;20.078;2023-05-19T07:59:25;97658.94;;;12.07;78.39
24302;BME280;12421;49.732;20.078;2023-05-19T08:09:28;97663.21;;;11.96;78.16
24302;BME280;12421;49.732;20.078;2023-05-19T08:19:31;97665.41;;;12.13;78.48
24302;BME280;12421;49.732;20.078;2023-05-19T08:29:34;97660.49;;;12.39;77.98
24302;BME280;12421;49.732;20.078;2023-05-19T08:39:38;97662.59;;;12.92;77.65
24302;BME280;12421;49.732;20.078;2023-05-19T08:49:43;97668.27;;;13.45;75.77
24302;BME280;12421;49.732;20.078;2023-05-19T08:59:48;97665.15;;;14.01;74.62
24302;BME280;12421;49.732;20.078;2023-05-19T09:09:52;97664.99;;;14.54;73.25
24302;BME280;12421;49.732;20.078;2023-05-19T09:19:56;97659.35;;;14.87;72.19
24302;BME280;12421;49.732;20.078;2023-05-19T09:30:06;97655.66;;;15.07;71.05
24302;BME280;12421;49.732;20.078;2023-05-19T09:40:14;97660.44;;;15.08;70.72
24302;BME280;12421;49.732;20.078;2023-05-19T09:50:17;97662.73;;;14.97;70.07
24302;BME280;12421;49.732;20.078;2023-05-19T10:00:22;97664.88;;;14.74;70.29
24302;BME280;12421;49.732;20.078;2023-05-19T10:10:26;97667.35;;;14.74;70.89
24302;BME280;12421;49.732;20.078;2023-05-19T10:20:29;97666.91;;;14.68;70.35
24302;BME280;12421;49.732;20.078;2023-05-19T10:30:38;97671.17;;;14.55;70.45
24302;BME280;12421;49.732;20.078;2023-05-19T10:41:06;97663.54;;;14.45;71.35
24302;BME280;12421;49.732;20.078;2023-05-19T10:51:13;97674.03;;;14.12;71.57
24302;BME280;12421;49.732;20.078;2023-05-19T11:01:19;97674.68;;;13.73;72.37
24302;BME280;12421;49.732;20.078;2023-05-19T11:11:46;97667.46;;;13.56;73.49
24302;BME280;12421;49.732;20.078;2023-05-19T11:21:50;97672.98;;;13.50;73.89
24302;BME280;12421;49.732;20.078;2023-05-19T11:31:57;97669.48;;;13.65;74.22
24302;BME280;12421;49.732;20.078;2023-05-19T11:42:01;97672.48;;;13.80;73.56
24302;BME280;12421;49.732;20.078;2023-05-19T11:52:04;97675.84;;;13.80;74.13
24302;BME280;12421;49.732;20.078;2023-05-19T12:12:16;97669.81;;;14.38;73.62
24302;BME280;12421;49.732;20.078;2023-05-19T12:22:20;97672.77;;;14.65;72.76
24302;BME280;12421;49.732;20.078;2023-05-19T12:32:26;97669.89;;;14.80;72.50
24302;BME280;12421;49.732;20.078;2023-05-19T12:42:30;97664.94;;;14.91;71.80
24302;BME280;12421;49.732;20.078;2023-05-19T12:52:45;97659.39;;;14.85;71.58
24302;BME280;12421;49.732;20.078;2023-05-19T13:03:05;97660.48;;;14.94;71.90
24302;BME280;12421;49.732;20.078;2023-05-19T13:13:10;97659.92;;;14.85;71.89
24302;BME280;12421;49.732;20.078;2023-05-19T13:23:14;97657.75;;;14.66;72.26
24302;BME280;12421;49.732;20.078;2023-05-19T13:33:18;97647.67;;;14.77;72.70
24302;BME280;12421;49.732;20.078;2023-05-19T13:43:21;97646.95;;;14.67;72.18
24302;BME280;12421;49.732;20.078;2023-05-19T13:53:24;97651.35;;;14.57;72.53
24302;BME280;12421;49.732;20.078;2023-05-19T14:03:29;97650.13;;;14.44;72.61
24302;BME280;12421;49.732;20.078;2023-05-19T14:13:32;97648.33;;;14.20;73.66
24302;BME280;12421;49.732;20.078;2023-05-19T14:23:41;97654.68;;;14.19;73.78
24302;BME280;12421;49.732;20.078;2023-05-19T14:34:00;97661.46;;;14.14;73.88
24302;BME280;12421;49.732;20.078;2023-05-19T14:45:10;97653.43;;;13.93;74.53
24302;BME280;12421;49.732;20.078;2023-05-19T14:55:19;97650.85;;;13.74;74.87
24302;BME280;12421;49.732;20.078;2023-05-19T15:05:22;97657.13;;;13.49;75.84
24302;BME280;12421;49.732;20.078;2023-05-19T15:15:26;97661.27;;;13.24;76.60
24302;BME280;12421;49.732;20.078;2023-05-19T15:25:29;97670.48;;;13.20;77.10
24302;BME280;12421;49.732;20.078;2023-05-19T15:35:33;97668.30;;;13.09;77.56
24302;BME280;12421;49.732;20.078;2023-05-19T15:46:43;97663.39;;;13.00;77.92
24302;BME280;12421;49.732;20.078;2023-05-19T15:56:46;97663.88;;;13.08;78.65
24302;BME280;12421;49.732;20.078;2023-05-19T16:07:10;97654.08;;;12.99;78.25
24302;BME280;12421;49.732;20.078;2023-05-19T16:17:14;97657.77;;;12.77;78.96
24302;BME280;12421;49.732;20.078;2023-05-19T16:27:21;97665.48;;;12.59;79.59
24302;BME280;12421;49.732;20.078;2023-05-19T16:38:17;97674.13;;;12.57;80.00
24302;BME280;12421;49.732;20.078;2023-05-19T16:48:21;97670.33;;;12.46;80.44
24302;BME280;12421;49.732;20.078;2023-05-19T16:58:24;97669.07;;;12.22;81.06
24302;BME280;12421;49.732;20.078;2023-05-19T17:08:30;97673.73;;;12.05;81.89
24302;BME280;12421;49.732;20.078;2023-05-19T17:18:33;97671.66;;;11.97;82.48
24302;BME280;12421;49.732;20.078;2023-05-19T17:28:39;97685.92;;;11.92;82.83
24302;BME280;12421;49.732;20.078;2023-05-19T17:38:42;97685.08;;;11.86;83.06
24302;BME280;12421;49.732;20.078;2023-05-19T17:48:45;97692.81;;;11.85;83.22
24302;BME280;12421;49.732;20.078;2023-05-19T17:58:49;97693.55;;;11.81;83.29
24302;BME280;12421;49.732;20.078;2023-05-19T18:08:54;97694.98;;;11.69;83.68
24302;BME280;12421;49.732;20.078;2023-05-19T18:19:00;97699.02;;;11.59;84.20
24302;BME280;12421;49.732;20.078;2023-05-19T18:29:03;97708.53;;;11.51;84.79
24302;BME280;12421;49.732;20.078;2023-05-19T18:39:07;97716.46;;;11.44;85.16
24302;BME280;12421;49.732;20.078;2023-05-19T18:49:11;97720.68;;;11.47;85.49
24302;BME280;12421;49.732;20.078;2023-05-19T18:59:15;97714.52;;;11.49;85.37
24302;BME280;12421;49.732;20.078;2023-05-19T19:09:19;97717.69;;;11.47;85.39
24302;BME280;12421;49.732;20.078;2023-05-19T19:19:24;97722.61;;;11.51;85.49
24302;BME280;12421;49.732;20.078;2023-05-19T19:29:32;97739.31;;;11.55;85.24
24302;BME280;12421;49.732;20.078;2023-05-19T19:39:36;97739.12;;;11.59;85.12
24302;BME280;12421;49.732;20.078;2023-05-19T19:49:45;97734.04;;;11.55;85.10
24302;BME280;12421;49.732;20.078;2023-05-19T19:59:51;97728.77;;;11.49;85.19
24302;BME280;12421;49.732;20.078;2023-05-19T20:10:07;97731.77;;;11.47;85.36
24302;BME280;12421;49.732;20.078;2023-05-19T20:20:11;97736.49;;;11.49;85.35
24302;BME280;12421;49.732;20.078;2023-05-19T20:30:19;97736.70;;;11.35;85.37
24302;BME280;12421;49.732;20.078;2023-05-19T20:40:24;97732.31;;;11.28;85.70
24302;BME280;12421;49.732;20.078;2023-05-19T20:50:27;97717.91;;;11.14;86.01
24302;BME280;12421;49.732;20.078;2023-05-19T21:00:30;97711.05;;;10.96;86.48
24302;BME280;12421;49.732;20.078;2023-05-19T21:10:34;97711.75;;;10.84;87.27
24302;BME280;12421;49.732;20.078;2023-05-19T21:20:38;97713.69;;;10.79;87.59
24302;BME280;12421;49.732;20.078;2023-05-19T21:30:46;97713.15;;;10.74;88.27
24302;BME280;12421;49.732;20.078;2023-05-19T21:40:49;97708.76;;;10.75;88.62
24302;BME280;12421;49.732;20.078;2023-05-19T21:50:53;97714.90;;;10.67;89.08
24302;BME280;12421;49.732;20.078;2023-05-19T22:00:57;97717.52;;;10.61;89.19
24302;BME280;12421;49.732;20.078;2023-05-19T22:11:01;97722.27;;;10.62;89.25
24302;BME280;12421;49.732;20.078;2023-05-19T22:21:04;97732.11;;;10.68;89.04
24302;BME280;12421;49.732;20.078;2023-05-19T22:31:08;97726.30;;;10.69;88.83
24302;BME280;12421;49.732;20.078;2023-05-19T22:41:11;97714.38;;;10.74;88.92
24302;BME280;12421;49.732;20.078;2023-05-19T22:51:14;97709.29;;;10.80;88.87
24302;BME280;12421;49.732;20.078;2023-05-19T23:01:17;97695.42;;;10.78;88.98
24302;BME280;12421;49.732;20.078;2023-05-19T23:11:21;97684.17;;;10.76;89.33
24302;BME280;12421;49.732;20.078;2023-05-19T23:21:24;97680.65;;;10.73;89.23
24302;BME280;12421;49.732;20.078;2023-05-19T23:31:27;97682.59;;;10.74;88.93
24302;BME280;12421;49.732;20.078;2023-05-19T23:41:30;97677.50;;;10.66;89.00
24302;BME280;12421;49.732;20.078;2023-05-19T23:51:34;97668.89;;;10.70;88.82
